sensor_id;sensor_type;location;lat;lon;timestamp;temperature;humidity
13707;DHT22;6925;47.816;13.072;2022-08-19T00:01:29;23.20;67.80
13707;DHT22;6925;47.816;13.072;2022-08-19T00:03:57;23.10;67.60
13707;DHT22;6925;47.816;13.072;2022-08-19T00:06:25;23.10;67.70
13707;DHT22;6925;47.816;13.072;2022-08-19T00:08:55;23.10;67.70
13707;DHT22;6925;47.816;13.072;2022-08-19T00:11:22;23.10;67.40
13707;DHT22;6925;47.816;13.072;2022-08-19T00:13:51;23.10;67.80
13707;DHT22;6925;47.816;13.072;2022-08-19T00:16:18;23.10;67.90
13707;DHT22;6925;47.816;13.072;2022-08-19T00:18:46;23.10;67.80
13707;DHT22;6925;47.816;13.072;2022-08-19T00:21:14;23.00;67.90
13707;DHT22;6925;47.816;13.072;2022-08-19T00:23:41;23.10;67.80
13707;DHT22;6925;47.816;13.072;2022-08-19T00:26:11;23.00;67.70
13707;DHT22;6925;47.816;13.072;2022-08-19T00:28:38;23.00;68.00
13707;DHT22;6925;47.816;13.072;2022-08-19T00:31:07;23.00;68.10
13707;DHT22;6925;47.816;13.072;2022-08-19T00:33:34;23.00;68.20
13707;DHT22;6925;47.816;13.072;2022-08-19T00:36:05;23.00;68.30
13707;DHT22;6925;47.816;13.072;2022-08-19T00:38:32;23.00;68.30
13707;DHT22;6925;47.816;13.072;2022-08-19T00:41:00;23.00;68.10
13707;DHT22;6925;47.816;13.072;2022-08-19T00:43:28;23.00;68.20
13707;DHT22;6925;47.816;13.072;2022-08-19T00:45:56;23.00;68.30
13707;DHT22;6925;47.816;13.072;2022-08-19T00:48:23;23.00;68.50
13707;DHT22;6925;47.816;13.072;2022-08-19T00:50:52;23.00;68.30
13707;DHT22;6925;47.816;13.072;2022-08-19T00:53:24;23.00;68.70
13707;DHT22;6925;47.816;13.072;2022-08-19T00:55:54;23.10;68.90
13707;DHT22;6925;47.816;13.072;2022-08-19T00:58:26;23.10;68.80
13707;DHT22;6925;47.816;13.072;2022-08-19T01:00:57;23.10;68.70
13707;DHT22;6925;47.816;13.072;2022-08-19T01:03:24;23.20;69.00
13707;DHT22;6925;47.816;13.072;2022-08-19T01:05:52;23.10;68.90
13707;DHT22;6925;47.816;13.072;2022-08-19T01:08:21;23.20;69.00
13707;DHT22;6925;47.816;13.072;2022-08-19T01:10:50;23.10;68.90
13707;DHT22;6925;47.816;13.072;2022-08-19T01:13:20;23.20;68.80
13707;DHT22;6925;47.816;13.072;2022-08-19T01:15:51;23.20;68.70
13707;DHT22;6925;47.816;13.072;2022-08-19T01:18:20;23.20;68.90
13707;DHT22;6925;47.816;13.072;2022-08-19T01:20:49;23.10;69.00
13707;DHT22;6925;47.816;13.072;2022-08-19T01:23:18;23.10;68.90
13707;DHT22;6925;47.816;13.072;2022-08-19T01:25:47;23.10;69.00
13707;DHT22;6925;47.816;13.072;2022-08-19T01:28:17;23.10;69.10
13707;DHT22;6925;47.816;13.072;2022-08-19T01:30:45;23.10;69.10
13707;DHT22;6925;47.816;13.072;2022-08-19T01:33:13;23.10;69.00
13707;DHT22;6925;47.816;13.072;2022-08-19T01:35:41;23.10;68.90
13707;DHT22;6925;47.816;13.072;2022-08-19T01:38:19;23.10;69.20
13707;DHT22;6925;47.816;13.072;2022-08-19T01:40:48;23.20;69.10
13707;DHT22;6925;47.816;13.072;2022-08-19T01:43:16;23.20;69.20
13707;DHT22;6925;47.816;13.072;2022-08-19T01:45:45;23.20;69.00
13707;DHT22;6925;47.816;13.072;2022-08-19T01:48:13;23.20;69.00
13707;DHT22;6925;47.816;13.072;2022-08-19T01:50:41;23.10;69.00
13707;DHT22;6925;47.816;13.072;2022-08-19T01:53:11;23.10;68.90
13707;DHT22;6925;47.816;13.072;2022-08-19T01:55:42;23.10;69.30
13707;DHT22;6925;47.816;13.072;2022-08-19T01:58:14;23.10;69.40
13707;DHT22;6925;47.816;13.072;2022-08-19T02:00:42;23.20;69.40
13707;DHT22;6925;47.816;13.072;2022-08-19T02:03:11;23.10;69.30
13707;DHT22;6925;47.816;13.072;2022-08-19T02:05:38;23.10;69.30
13707;DHT22;6925;47.816;13.072;2022-08-19T02:08:06;23.10;69.50
13707;DHT22;6925;47.816;13.072;2022-08-19T02:10:38;23.10;69.30
13707;DHT22;6925;47.816;13.072;2022-08-19T02:13:06;23.10;69.70
13707;DHT22;6925;47.816;13.072;2022-08-19T02:15:35;23.10;69.60
13707;DHT22;6925;47.816;13.072;2022-08-19T02:18:03;23.10;69.70
13707;DHT22;6925;47.816;13.072;2022-08-19T02:20:31;23.10;69.60
13707;DHT22;6925;47.816;13.072;2022-08-19T02:22:58;23.10;69.40
13707;DHT22;6925;47.816;13.072;2022-08-19T02:25:27;23.10;69.50
13707;DHT22;6925;47.816;13.072;2022-08-19T02:27:55;23.10;69.30
13707;DHT22;6925;47.816;13.072;2022-08-19T02:30:22;23.10;69.50
13707;DHT22;6925;47.816;13.072;2022-08-19T02:32:52;23.20;69.80
13707;DHT22;6925;47.816;13.072;2022-08-19T02:35:20;23.10;69.70
13707;DHT22;6925;47.816;13.072;2022-08-19T02:37:47;23.10;69.60
13707;DHT22;6925;47.816;13.072;2022-08-19T02:40:32;23.20;69.70
13707;DHT22;6925;47.816;13.072;2022-08-19T02:43:00;23.10;69.60
13707;DHT22;6925;47.816;13.072;2022-08-19T02:45:31;23.10;69.40
13707;DHT22;6925;47.816;13.072;2022-08-19T02:48:00;23.10;69.50
13707;DHT22;6925;47.816;13.072;2022-08-19T02:50:27;23.10;69.50
13707;DHT22;6925;47.816;13.072;2022-08-19T02:52:55;23.10;69.70
13707;DHT22;6925;47.816;13.072;2022-08-19T02:55:22;23.10;69.90
13707;DHT22;6925;47.816;13.072;2022-08-19T02:57:49;23.10;69.80
13707;DHT22;6925;47.816;13.072;2022-08-19T03:00:17;23.20;70.00
13707;DHT22;6925;47.816;13.072;2022-08-19T03:02:44;23.10;69.90
13707;DHT22;6925;47.816;13.072;2022-08-19T03:05:13;23.10;69.60
13707;DHT22;6925;47.816;13.072;2022-08-19T03:07:41;23.10;69.90
13707;DHT22;6925;47.816;13.072;2022-08-19T03:10:09;23.10;70.20
13707;DHT22;6925;47.816;13.072;2022-08-19T03:12:37;23.10;69.70
13707;DHT22;6925;47.816;13.072;2022-08-19T03:15:06;23.10;70.10
13707;DHT22;6925;47.816;13.072;2022-08-19T03:17:33;23.10;70.20
13707;DHT22;6925;47.816;13.072;2022-08-19T03:20:00;23.10;70.00
13707;DHT22;6925;47.816;13.072;2022-08-19T03:22:29;23.10;70.00
13707;DHT22;6925;47.816;13.072;2022-08-19T03:24:57;23.10;69.70
13707;DHT22;6925;47.816;13.072;2022-08-19T03:27:24;23.00;69.40
13707;DHT22;6925;47.816;13.072;2022-08-19T03:29:55;23.00;69.80
13707;DHT22;6925;47.816;13.072;2022-08-19T03:32:23;23.00;69.50
13707;DHT22;6925;47.816;13.072;2022-08-19T03:34:50;23.00;69.60
13707;DHT22;6925;47.816;13.072;2022-08-19T03:37:18;23.00;69.50
13707;DHT22;6925;47.816;13.072;2022-08-19T03:39:47;22.90;69.80
13707;DHT22;6925;47.816;13.072;2022-08-19T03:42:14;23.00;70.00
13707;DHT22;6925;47.816;13.072;2022-08-19T03:44:42;23.00;70.00
13707;DHT22;6925;47.816;13.072;2022-08-19T03:47:10;23.00;69.90
13707;DHT22;6925;47.816;13.072;2022-08-19T03:49:41;23.00;70.00
13707;DHT22;6925;47.816;13.072;2022-08-19T03:52:09;23.00;70.00
13707;DHT22;6925;47.816;13.072;2022-08-19T03:54:37;23.10;70.20
13707;DHT22;6925;47.816;13.072;2022-08-19T03:57:06;23.10;70.30
13707;DHT22;6925;47.816;13.072;2022-08-19T03:59:36;23.10;70.50
13707;DHT22;6925;47.816;13.072;2022-08-19T04:02:06;23.10;70.60
13707;DHT22;6925;47.816;13.072;2022-08-19T04:04:36;23.10;70.80
13707;DHT22;6925;47.816;13.072;2022-08-19T04:07:04;23.10;70.90
13707;DHT22;6925;47.816;13.072;2022-08-19T04:09:33;23.10;71.20
13707;DHT22;6925;47.816;13.072;2022-08-19T04:12:02;23.10;71.40
13707;DHT22;6925;47.816;13.072;2022-08-19T04:14:39;23.10;71.60
13707;DHT22;6925;47.816;13.072;2022-08-19T04:17:07;23.10;71.70
13707;DHT22;6925;47.816;13.072;2022-08-19T04:19:35;23.10;71.90
13707;DHT22;6925;47.816;13.072;2022-08-19T04:22:04;23.10;72.20
13707;DHT22;6925;47.816;13.072;2022-08-19T04:24:35;23.00;72.30
13707;DHT22;6925;47.816;13.072;2022-08-19T04:27:03;23.00;72.40
13707;DHT22;6925;47.816;13.072;2022-08-19T04:29:31;23.00;72.60
13707;DHT22;6925;47.816;13.072;2022-08-19T04:32:01;22.90;72.60
13707;DHT22;6925;47.816;13.072;2022-08-19T04:34:29;22.90;73.10
13707;DHT22;6925;47.816;13.072;2022-08-19T04:36:58;22.90;73.50
13707;DHT22;6925;47.816;13.072;2022-08-19T04:39:28;22.90;73.90
13707;DHT22;6925;47.816;13.072;2022-08-19T04:42:09;22.90;74.20
13707;DHT22;6925;47.816;13.072;2022-08-19T04:44:54;22.80;74.30
13707;DHT22;6925;47.816;13.072;2022-08-19T04:47:23;22.80;74.40
13707;DHT22;6925;47.816;13.072;2022-08-19T04:49:50;22.80;74.40
13707;DHT22;6925;47.816;13.072;2022-08-19T04:52:18;22.80;74.50
13707;DHT22;6925;47.816;13.072;2022-08-19T04:54:45;22.70;74.50
13707;DHT22;6925;47.816;13.072;2022-08-19T04:57:13;22.70;74.60
13707;DHT22;6925;47.816;13.072;2022-08-19T04:59:40;22.70;74.90
13707;DHT22;6925;47.816;13.072;2022-08-19T05:02:09;22.70;75.10
13707;DHT22;6925;47.816;13.072;2022-08-19T05:04:38;22.60;75.20
13707;DHT22;6925;47.816;13.072;2022-08-19T05:07:06;22.60;75.60
13707;DHT22;6925;47.816;13.072;2022-08-19T05:09:34;22.60;75.40
13707;DHT22;6925;47.816;13.072;2022-08-19T05:12:01;22.60;75.70
13707;DHT22;6925;47.816;13.072;2022-08-19T05:14:30;22.60;75.70
13707;DHT22;6925;47.816;13.072;2022-08-19T05:16:57;22.60;75.80
13707;DHT22;6925;47.816;13.072;2022-08-19T05:19:25;22.70;75.90
13707;DHT22;6925;47.816;13.072;2022-08-19T05:22:10;22.60;75.70
13707;DHT22;6925;47.816;13.072;2022-08-19T05:24:55;22.60;76.10
13707;DHT22;6925;47.816;13.072;2022-08-19T05:27:22;22.50;75.60
13707;DHT22;6925;47.816;13.072;2022-08-19T05:29:49;22.50;76.30
13707;DHT22;6925;47.816;13.072;2022-08-19T05:32:16;22.50;76.40
13707;DHT22;6925;47.816;13.072;2022-08-19T05:34:47;22.50;76.70
13707;DHT22;6925;47.816;13.072;2022-08-19T05:37:16;22.50;76.10
13707;DHT22;6925;47.816;13.072;2022-08-19T05:39:43;22.40;76.00
13707;DHT22;6925;47.816;13.072;2022-08-19T05:42:12;22.40;76.30
13707;DHT22;6925;47.816;13.072;2022-08-19T05:44:41;22.30;75.90
13707;DHT22;6925;47.816;13.072;2022-08-19T05:47:10;22.20;76.10
13707;DHT22;6925;47.816;13.072;2022-08-19T05:49:38;22.20;76.50
13707;DHT22;6925;47.816;13.072;2022-08-19T05:52:09;22.20;77.00
13707;DHT22;6925;47.816;13.072;2022-08-19T05:54:38;22.20;77.60
13707;DHT22;6925;47.816;13.072;2022-08-19T05:57:07;22.30;78.30
13707;DHT22;6925;47.816;13.072;2022-08-19T05:59:35;22.40;78.10
13707;DHT22;6925;47.816;13.072;2022-08-19T06:02:03;22.40;77.50
13707;DHT22;6925;47.816;13.072;2022-08-19T06:04:31;22.50;77.80
13707;DHT22;6925;47.816;13.072;2022-08-19T06:06:58;22.50;77.20
13707;DHT22;6925;47.816;13.072;2022-08-19T06:09:27;22.50;77.50
13707;DHT22;6925;47.816;13.072;2022-08-19T06:11:57;22.60;77.70
13707;DHT22;6925;47.816;13.072;2022-08-19T06:14:27;22.70;77.80
13707;DHT22;6925;47.816;13.072;2022-08-19T06:16:57;22.80;78.30
13707;DHT22;6925;47.816;13.072;2022-08-19T06:19:28;22.80;77.70
13707;DHT22;6925;47.816;13.072;2022-08-19T06:21:57;22.80;77.10
13707;DHT22;6925;47.816;13.072;2022-08-19T06:24:26;22.80;77.00
13707;DHT22;6925;47.816;13.072;2022-08-19T06:26:56;22.80;76.70
13707;DHT22;6925;47.816;13.072;2022-08-19T06:29:25;22.80;76.20
13707;DHT22;6925;47.816;13.072;2022-08-19T06:31:54;22.70;75.40
13707;DHT22;6925;47.816;13.072;2022-08-19T06:34:22;22.60;75.70
13707;DHT22;6925;47.816;13.072;2022-08-19T06:36:51;22.60;76.60
13707;DHT22;6925;47.816;13.072;2022-08-19T06:39:21;22.70;76.80
13707;DHT22;6925;47.816;13.072;2022-08-19T06:41:50;22.70;76.50
13707;DHT22;6925;47.816;13.072;2022-08-19T06:44:22;22.70;76.90
13707;DHT22;6925;47.816;13.072;2022-08-19T06:46:51;22.80;77.90
13707;DHT22;6925;47.816;13.072;2022-08-19T06:49:18;22.90;78.30
13707;DHT22;6925;47.816;13.072;2022-08-19T06:51:47;22.90;78.10
13707;DHT22;6925;47.816;13.072;2022-08-19T06:54:15;22.90;78.10
13707;DHT22;6925;47.816;13.072;2022-08-19T06:56:43;23.00;78.50
13707;DHT22;6925;47.816;13.072;2022-08-19T06:59:15;23.10;78.70
13707;DHT22;6925;47.816;13.072;2022-08-19T07:01:47;23.10;78.20
13707;DHT22;6925;47.816;13.072;2022-08-19T07:04:19;23.10;78.00
13707;DHT22;6925;47.816;13.072;2022-08-19T07:06:47;23.00;77.70
13707;DHT22;6925;47.816;13.072;2022-08-19T07:09:16;23.00;78.20
13707;DHT22;6925;47.816;13.072;2022-08-19T07:11:46;23.00;78.60
13707;DHT22;6925;47.816;13.072;2022-08-19T07:14:16;23.00;78.70
13707;DHT22;6925;47.816;13.072;2022-08-19T07:16:49;23.10;79.20
13707;DHT22;6925;47.816;13.072;2022-08-19T07:19:21;23.20;79.30
13707;DHT22;6925;47.816;13.072;2022-08-19T07:21:50;23.20;79.40
13707;DHT22;6925;47.816;13.072;2022-08-19T07:24:19;23.20;78.60
13707;DHT22;6925;47.816;13.072;2022-08-19T07:26:50;23.20;78.90
13707;DHT22;6925;47.816;13.072;2022-08-19T07:29:18;23.20;78.40
13707;DHT22;6925;47.816;13.072;2022-08-19T07:31:50;23.20;79.10
13707;DHT22;6925;47.816;13.072;2022-08-19T07:34:18;23.30;79.40
13707;DHT22;6925;47.816;13.072;2022-08-19T07:36:46;23.40;80.00
13707;DHT22;6925;47.816;13.072;2022-08-19T07:39:16;23.40;79.50
13707;DHT22;6925;47.816;13.072;2022-08-19T07:41:46;23.40;78.90
13707;DHT22;6925;47.816;13.072;2022-08-19T07:44:13;23.40;78.10
13707;DHT22;6925;47.816;13.072;2022-08-19T07:46:45;23.40;77.30
13707;DHT22;6925;47.816;13.072;2022-08-19T07:49:16;23.30;77.20
13707;DHT22;6925;47.816;13.072;2022-08-19T07:51:51;23.30;78.50
13707;DHT22;6925;47.816;13.072;2022-08-19T07:54:20;23.30;77.70
13707;DHT22;6925;47.816;13.072;2022-08-19T07:56:47;23.30;77.70
13707;DHT22;6925;47.816;13.072;2022-08-19T07:59:16;23.30;77.20
13707;DHT22;6925;47.816;13.072;2022-08-19T08:01:44;23.30;78.20
13707;DHT22;6925;47.816;13.072;2022-08-19T08:04:19;23.40;78.70
13707;DHT22;6925;47.816;13.072;2022-08-19T08:07:05;23.50;79.00
13707;DHT22;6925;47.816;13.072;2022-08-19T08:09:50;23.50;78.60
13707;DHT22;6925;47.816;13.072;2022-08-19T08:12:21;23.50;78.30
13707;DHT22;6925;47.816;13.072;2022-08-19T08:14:51;23.50;77.90
13707;DHT22;6925;47.816;13.072;2022-08-19T08:17:21;23.50;78.40
13707;DHT22;6925;47.816;13.072;2022-08-19T08:19:51;23.50;76.50
13707;DHT22;6925;47.816;13.072;2022-08-19T08:22:21;23.50;75.70
13707;DHT22;6925;47.816;13.072;2022-08-19T08:25:08;23.40;76.50
13707;DHT22;6925;47.816;13.072;2022-08-19T08:27:36;23.50;77.10
13707;DHT22;6925;47.816;13.072;2022-08-19T08:30:06;23.60;77.30
13707;DHT22;6925;47.816;13.072;2022-08-19T08:32:35;23.60;76.80
13707;DHT22;6925;47.816;13.072;2022-08-19T08:35:05;23.70;76.20
13707;DHT22;6925;47.816;13.072;2022-08-19T08:37:32;23.80;76.20
13707;DHT22;6925;47.816;13.072;2022-08-19T08:40:03;23.80;75.90
13707;DHT22;6925;47.816;13.072;2022-08-19T08:42:35;23.80;74.90
13707;DHT22;6925;47.816;13.072;2022-08-19T08:45:08;23.90;75.20
13707;DHT22;6925;47.816;13.072;2022-08-19T08:47:44;23.90;75.80
13707;DHT22;6925;47.816;13.072;2022-08-19T08:50:20;24.10;75.40
13707;DHT22;6925;47.816;13.072;2022-08-19T08:52:50;24.10;75.70
13707;DHT22;6925;47.816;13.072;2022-08-19T08:55:22;24.10;74.30
13707;DHT22;6925;47.816;13.072;2022-08-19T08:57:53;24.20;73.90
13707;DHT22;6925;47.816;13.072;2022-08-19T09:00:24;24.30;73.80
13707;DHT22;6925;47.816;13.072;2022-08-19T09:02:52;24.30;74.60
13707;DHT22;6925;47.816;13.072;2022-08-19T09:05:23;24.50;75.00
13707;DHT22;6925;47.816;13.072;2022-08-19T09:07:58;24.70;73.50
13707;DHT22;6925;47.816;13.072;2022-08-19T09:10:29;24.70;71.90
13707;DHT22;6925;47.816;13.072;2022-08-19T09:13:09;24.60;72.30
13707;DHT22;6925;47.816;13.072;2022-08-19T09:15:42;24.60;72.20
13707;DHT22;6925;47.816;13.072;2022-08-19T09:18:11;24.70;71.40
13707;DHT22;6925;47.816;13.072;2022-08-19T09:20:45;24.70;71.00
13707;DHT22;6925;47.816;13.072;2022-08-19T09:23:13;24.70;70.70
13707;DHT22;6925;47.816;13.072;2022-08-19T09:25:41;24.60;70.00
13707;DHT22;6925;47.816;13.072;2022-08-19T09:28:09;24.60;70.60
13707;DHT22;6925;47.816;13.072;2022-08-19T09:30:40;24.60;70.80
13707;DHT22;6925;47.816;13.072;2022-08-19T09:33:08;24.60;70.40
13707;DHT22;6925;47.816;13.072;2022-08-19T09:35:37;24.70;71.10
13707;DHT22;6925;47.816;13.072;2022-08-19T09:38:05;24.80;70.30
13707;DHT22;6925;47.816;13.072;2022-08-19T09:40:33;24.90;69.80
13707;DHT22;6925;47.816;13.072;2022-08-19T09:43:01;24.90;69.50
13707;DHT22;6925;47.816;13.072;2022-08-19T09:45:29;24.90;69.30
13707;DHT22;6925;47.816;13.072;2022-08-19T09:47:56;24.90;69.10
13707;DHT22;6925;47.816;13.072;2022-08-19T09:50:24;25.00;69.90
13707;DHT22;6925;47.816;13.072;2022-08-19T09:52:52;25.10;69.70
13707;DHT22;6925;47.816;13.072;2022-08-19T09:55:21;25.10;68.50
13707;DHT22;6925;47.816;13.072;2022-08-19T09:57:49;25.00;69.00
13707;DHT22;6925;47.816;13.072;2022-08-19T10:00:16;25.10;69.10
13707;DHT22;6925;47.816;13.072;2022-08-19T10:02:44;25.10;69.20
13707;DHT22;6925;47.816;13.072;2022-08-19T10:05:11;25.10;68.80
13707;DHT22;6925;47.816;13.072;2022-08-19T10:07:55;25.10;69.00
13707;DHT22;6925;47.816;13.072;2022-08-19T10:10:24;25.20;69.70
13707;DHT22;6925;47.816;13.072;2022-08-19T10:12:52;25.40;69.80
13707;DHT22;6925;47.816;13.072;2022-08-19T10:15:21;25.40;68.40
13707;DHT22;6925;47.816;13.072;2022-08-19T10:17:48;25.30;67.30
13707;DHT22;6925;47.816;13.072;2022-08-19T10:20:16;25.30;67.80
13707;DHT22;6925;47.816;13.072;2022-08-19T10:22:43;25.30;68.10
13707;DHT22;6925;47.816;13.072;2022-08-19T10:25:11;25.40;68.70
13707;DHT22;6925;47.816;13.072;2022-08-19T10:27:44;25.50;69.40
13707;DHT22;6925;47.816;13.072;2022-08-19T10:30:12;25.70;69.30
13707;DHT22;6925;47.816;13.072;2022-08-19T10:32:40;25.90;68.80
13707;DHT22;6925;47.816;13.072;2022-08-19T10:35:07;26.00;68.10
13707;DHT22;6925;47.816;13.072;2022-08-19T10:37:36;26.00;67.00
13707;DHT22;6925;47.816;13.072;2022-08-19T10:40:05;26.00;66.50
13707;DHT22;6925;47.816;13.072;2022-08-19T10:42:33;26.00;67.00
13707;DHT22;6925;47.816;13.072;2022-08-19T10:45:04;26.00;65.80
13707;DHT22;6925;47.816;13.072;2022-08-19T10:47:32;26.00;65.30
13707;DHT22;6925;47.816;13.072;2022-08-19T10:49:59;26.00;66.10
13707;DHT22;6925;47.816;13.072;2022-08-19T10:52:46;26.20;67.50
13707;DHT22;6925;47.816;13.072;2022-08-19T10:55:13;26.50;67.30
13707;DHT22;6925;47.816;13.072;2022-08-19T10:57:58;26.60;64.10
13707;DHT22;6925;47.816;13.072;2022-08-19T11:00:26;26.60;64.70
13707;DHT22;6925;47.816;13.072;2022-08-19T11:02:54;26.50;64.70
13707;DHT22;6925;47.816;13.072;2022-08-19T11:05:21;26.50;63.80
13707;DHT22;6925;47.816;13.072;2022-08-19T11:07:49;26.50;63.50
13707;DHT22;6925;47.816;13.072;2022-08-19T11:10:17;26.40;62.30
13707;DHT22;6925;47.816;13.072;2022-08-19T11:12:44;26.30;62.00
13707;DHT22;6925;47.816;13.072;2022-08-19T11:15:14;26.30;62.90
13707;DHT22;6925;47.816;13.072;2022-08-19T11:17:43;26.30;62.70
13707;DHT22;6925;47.816;13.072;2022-08-19T11:20:11;26.30;62.70
13707;DHT22;6925;47.816;13.072;2022-08-19T11:22:39;26.40;63.20
13707;DHT22;6925;47.816;13.072;2022-08-19T11:25:09;26.40;63.90
13707;DHT22;6925;47.816;13.072;2022-08-19T11:27:38;26.50;62.60
13707;DHT22;6925;47.816;13.072;2022-08-19T11:30:09;26.50;62.40
13707;DHT22;6925;47.816;13.072;2022-08-19T11:32:38;26.50;62.80
13707;DHT22;6925;47.816;13.072;2022-08-19T11:35:08;26.60;63.20
13707;DHT22;6925;47.816;13.072;2022-08-19T11:37:36;26.60;62.80
13707;DHT22;6925;47.816;13.072;2022-08-19T11:40:07;26.60;62.20
13707;DHT22;6925;47.816;13.072;2022-08-19T11:42:35;26.60;62.20
13707;DHT22;6925;47.816;13.072;2022-08-19T11:45:19;26.60;62.40
13707;DHT22;6925;47.816;13.072;2022-08-19T11:47:47;26.60;61.70
13707;DHT22;6925;47.816;13.072;2022-08-19T11:50:16;26.70;62.00
13707;DHT22;6925;47.816;13.072;2022-08-19T11:52:43;26.70;62.60
13707;DHT22;6925;47.816;13.072;2022-08-19T11:55:10;26.80;61.40
13707;DHT22;6925;47.816;13.072;2022-08-19T11:57:38;26.80;61.50
13707;DHT22;6925;47.816;13.072;2022-08-19T12:00:07;26.90;61.30
13707;DHT22;6925;47.816;13.072;2022-08-19T12:02:36;27.20;61.80
13707;DHT22;6925;47.816;13.072;2022-08-19T12:05:06;27.40;60.10
13707;DHT22;6925;47.816;13.072;2022-08-19T12:07:35;27.50;59.50
13707;DHT22;6925;47.816;13.072;2022-08-19T12:10:03;27.70;59.80
13707;DHT22;6925;47.816;13.072;2022-08-19T12:12:30;27.80;59.10
13707;DHT22;6925;47.816;13.072;2022-08-19T12:14:57;28.00;58.80
13707;DHT22;6925;47.816;13.072;2022-08-19T12:17:25;28.10;59.00
13707;DHT22;6925;47.816;13.072;2022-08-19T12:19:56;28.20;58.30
13707;DHT22;6925;47.816;13.072;2022-08-19T12:22:23;28.20;58.60
13707;DHT22;6925;47.816;13.072;2022-08-19T12:24:52;28.30;58.70
13707;DHT22;6925;47.816;13.072;2022-08-19T12:27:20;28.40;58.50
13707;DHT22;6925;47.816;13.072;2022-08-19T12:29:48;28.30;56.60
13707;DHT22;6925;47.816;13.072;2022-08-19T12:32:15;28.10;57.10
13707;DHT22;6925;47.816;13.072;2022-08-19T12:34:43;28.00;57.80
13707;DHT22;6925;47.816;13.072;2022-08-19T12:37:13;28.00;58.30
13707;DHT22;6925;47.816;13.072;2022-08-19T12:39:42;28.10;58.60
13707;DHT22;6925;47.816;13.072;2022-08-19T12:42:12;28.10;57.70
13707;DHT22;6925;47.816;13.072;2022-08-19T12:44:42;28.00;57.60
13707;DHT22;6925;47.816;13.072;2022-08-19T12:47:11;28.00;57.40
13707;DHT22;6925;47.816;13.072;2022-08-19T12:49:39;27.80;57.60
13707;DHT22;6925;47.816;13.072;2022-08-19T12:52:07;27.90;57.70
13707;DHT22;6925;47.816;13.072;2022-08-19T12:54:36;27.80;57.80
13707;DHT22;6925;47.816;13.072;2022-08-19T12:57:06;27.70;57.50
13707;DHT22;6925;47.816;13.072;2022-08-19T12:59:35;27.70;57.60
13707;DHT22;6925;47.816;13.072;2022-08-19T13:02:03;27.70;58.40
13707;DHT22;6925;47.816;13.072;2022-08-19T13:04:31;27.70;57.70
13707;DHT22;6925;47.816;13.072;2022-08-19T13:07:01;27.60;57.10
13707;DHT22;6925;47.816;13.072;2022-08-19T13:09:29;27.50;58.10
13707;DHT22;6925;47.816;13.072;2022-08-19T13:11:56;27.50;59.20
13707;DHT22;6925;47.816;13.072;2022-08-19T13:14:23;27.50;59.00
13707;DHT22;6925;47.816;13.072;2022-08-19T13:16:52;27.40;57.60
13707;DHT22;6925;47.816;13.072;2022-08-19T13:19:19;27.30;57.20
13707;DHT22;6925;47.816;13.072;2022-08-19T13:21:49;27.20;57.40
13707;DHT22;6925;47.816;13.072;2022-08-19T13:24:17;27.10;58.20
13707;DHT22;6925;47.816;13.072;2022-08-19T13:26:44;27.20;59.30
13707;DHT22;6925;47.816;13.072;2022-08-19T13:29:12;27.20;59.10
13707;DHT22;6925;47.816;13.072;2022-08-19T13:31:58;27.10;60.10
13707;DHT22;6925;47.816;13.072;2022-08-19T13:34:43;27.20;59.90
13707;DHT22;6925;47.816;13.072;2022-08-19T13:37:12;27.20;60.20
13707;DHT22;6925;47.816;13.072;2022-08-19T13:39:41;27.20;60.40
13707;DHT22;6925;47.816;13.072;2022-08-19T13:42:08;27.20;60.50
13707;DHT22;6925;47.816;13.072;2022-08-19T13:44:36;27.10;59.00
13707;DHT22;6925;47.816;13.072;2022-08-19T13:47:05;27.00;59.30
13707;DHT22;6925;47.816;13.072;2022-08-19T13:49:34;26.90;59.10
13707;DHT22;6925;47.816;13.072;2022-08-19T13:52:03;26.90;60.30
13707;DHT22;6925;47.816;13.072;2022-08-19T13:54:31;26.90;59.80
13707;DHT22;6925;47.816;13.072;2022-08-19T13:56:58;26.90;60.50
13707;DHT22;6925;47.816;13.072;2022-08-19T13:59:26;26.80;60.10
13707;DHT22;6925;47.816;13.072;2022-08-19T14:01:57;26.80;60.70
13707;DHT22;6925;47.816;13.072;2022-08-19T14:04:26;26.80;61.00
13707;DHT22;6925;47.816;13.072;2022-08-19T14:06:54;26.80;61.10
13707;DHT22;6925;47.816;13.072;2022-08-19T14:09:21;26.80;61.00
13707;DHT22;6925;47.816;13.072;2022-08-19T14:11:49;26.80;61.30
13707;DHT22;6925;47.816;13.072;2022-08-19T14:14:16;26.80;60.70
13707;DHT22;6925;47.816;13.072;2022-08-19T14:16:44;26.70;60.10
13707;DHT22;6925;47.816;13.072;2022-08-19T14:19:11;26.60;60.50
13707;DHT22;6925;47.816;13.072;2022-08-19T14:21:40;26.60;61.20
13707;DHT22;6925;47.816;13.072;2022-08-19T14:24:07;26.50;61.10
13707;DHT22;6925;47.816;13.072;2022-08-19T14:26:35;26.40;61.30
13707;DHT22;6925;47.816;13.072;2022-08-19T14:29:04;26.30;61.50
13707;DHT22;6925;47.816;13.072;2022-08-19T14:31:32;26.30;62.60
13707;DHT22;6925;47.816;13.072;2022-08-19T14:33:59;26.30;62.40
13707;DHT22;6925;47.816;13.072;2022-08-19T14:36:26;26.30;63.10
13707;DHT22;6925;47.816;13.072;2022-08-19T14:38:55;26.30;62.70
13707;DHT22;6925;47.816;13.072;2022-08-19T14:41:23;26.20;63.00
13707;DHT22;6925;47.816;13.072;2022-08-19T14:43:53;26.30;64.00
13707;DHT22;6925;47.816;13.072;2022-08-19T14:46:23;26.20;63.00
13707;DHT22;6925;47.816;13.072;2022-08-19T14:48:51;26.20;63.90
13707;DHT22;6925;47.816;13.072;2022-08-19T14:51:20;26.20;63.40
13707;DHT22;6925;47.816;13.072;2022-08-19T14:53:52;26.10;62.90
13707;DHT22;6925;47.816;13.072;2022-08-19T14:56:26;26.00;63.50
13707;DHT22;6925;47.816;13.072;2022-08-19T14:58:54;26.10;64.10
13707;DHT22;6925;47.816;13.072;2022-08-19T15:01:25;26.10;64.10
13707;DHT22;6925;47.816;13.072;2022-08-19T15:03:53;26.10;63.80
13707;DHT22;6925;47.816;13.072;2022-08-19T15:06:21;26.00;63.60
13707;DHT22;6925;47.816;13.072;2022-08-19T15:08:49;26.00;63.90
13707;DHT22;6925;47.816;13.072;2022-08-19T15:11:21;26.00;64.00
13707;DHT22;6925;47.816;13.072;2022-08-19T15:13:49;25.90;64.30
13707;DHT22;6925;47.816;13.072;2022-08-19T15:16:19;25.90;64.20
13707;DHT22;6925;47.816;13.072;2022-08-19T15:18:50;25.90;64.80
13707;DHT22;6925;47.816;13.072;2022-08-19T15:21:18;25.90;63.70
13707;DHT22;6925;47.816;13.072;2022-08-19T15:23:45;25.80;63.70
13707;DHT22;6925;47.816;13.072;2022-08-19T15:26:14;25.80;64.00
13707;DHT22;6925;47.816;13.072;2022-08-19T15:28:43;25.70;62.80
13707;DHT22;6925;47.816;13.072;2022-08-19T15:31:11;25.70;63.30
13707;DHT22;6925;47.816;13.072;2022-08-19T15:33:39;25.60;63.80
13707;DHT22;6925;47.816;13.072;2022-08-19T15:36:10;25.60;63.40
13707;DHT22;6925;47.816;13.072;2022-08-19T15:38:38;25.50;63.60
13707;DHT22;6925;47.816;13.072;2022-08-19T15:41:17;25.50;64.00
13707;DHT22;6925;47.816;13.072;2022-08-19T15:43:54;25.50;64.30